sensor_id;sensor_type;location;lat;lon;timestamp;temperature;humidity
80676;SHT30;70041;46.088;18.268;2023-07-28T00:01:51;15.77;75.08
80676;SHT30;70041;46.088;18.268;2023-07-28T00:04:17;15.94;74.74
80676;SHT30;70041;46.088;18.268;2023-07-28T00:06:42;15.84;75.69
80676;SHT30;70041;46.088;18.268;2023-07-28T00:09:09;15.74;75.75
80676;SHT30;70041;46.088;18.268;2023-07-28T00:11:34;15.69;76.01
80676;SHT30;70041;46.088;18.268;2023-07-28T00:14:00;15.75;75.31
80676;SHT30;70041;46.088;18.268;2023-07-28T00:16:25;15.84;74.77
80676;SHT30;70041;46.088;18.268;2023-07-28T00:18:50;15.89;75.04
80676;SHT30;70041;46.088;18.268;2023-07-28T00:21:16;15.79;75.77
80676;SHT30;70041;46.088;18.268;2023-07-28T00:23:41;15.77;75.28
80676;SHT30;70041;46.088;18.268;2023-07-28T00:26:06;15.71;75.90
80676;SHT30;70041;46.088;18.268;2023-07-28T00:28:32;15.64;76.70
80676;SHT30;70041;46.088;18.268;2023-07-28T00:30:57;15.62;76.37
80676;SHT30;70041;46.088;18.268;2023-07-28T00:33:23;15.69;75.83
80676;SHT30;70041;46.088;18.268;2023-07-28T00:35:49;15.69;76.10
80676;SHT30;70041;46.088;18.268;2023-07-28T00:38:14;15.65;76.30
80676;SHT30;70041;46.088;18.268;2023-07-28T00:40:40;15.74;75.66
80676;SHT30;70041;46.088;18.268;2023-07-28T00:43:05;15.72;75.57
80676;SHT30;70041;46.088;18.268;2023-07-28T00:45:32;15.88;74.71
80676;SHT30;70041;46.088;18.268;2023-07-28T00:47:58;15.88;75.13
80676;SHT30;70041;46.088;18.268;2023-07-28T00:50:24;15.84;74.77
80676;SHT30;70041;46.088;18.268;2023-07-28T00:52:50;15.82;75.40
80676;SHT30;70041;46.088;18.268;2023-07-28T00:55:16;15.82;75.29
80676;SHT30;70041;46.088;18.268;2023-07-28T00:57:41;15.92;75.35
80676;SHT30;70041;46.088;18.268;2023-07-28T01:00:07;15.95;74.91
80676;SHT30;70041;46.088;18.268;2023-07-28T01:02:33;15.99;75.73
80676;SHT30;70041;46.088;18.268;2023-07-28T01:04:58;15.98;75.45
80676;SHT30;70041;46.088;18.268;2023-07-28T01:07:52;15.94;76.63
80676;SHT30;70041;46.088;18.268;2023-07-28T01:10:24;15.96;76.25
80676;SHT30;70041;46.088;18.268;2023-07-28T01:12:51;16.12;75.48
80676;SHT30;70041;46.088;18.268;2023-07-28T01:15:16;16.17;74.35
80676;SHT30;70041;46.088;18.268;2023-07-28T01:17:42;16.05;75.86
80676;SHT30;70041;46.088;18.268;2023-07-28T01:20:08;16.01;76.09
80676;SHT30;70041;46.088;18.268;2023-07-28T01:25:32;15.94;76.81
80676;SHT30;70041;46.088;18.268;2023-07-28T01:28:02;15.91;76.95
80676;SHT30;70041;46.088;18.268;2023-07-28T01:30:28;15.96;76.35
80676;SHT30;70041;46.088;18.268;2023-07-28T01:32:55;15.94;76.09
80676;SHT30;70041;46.088;18.268;2023-07-28T01:35:22;16.01;76.28
80676;SHT30;70041;46.088;18.268;2023-07-28T01:37:47;15.98;75.97
80676;SHT30;70041;46.088;18.268;2023-07-28T01:40:19;15.89;75.91
80676;SHT30;70041;46.088;18.268;2023-07-28T01:42:45;15.74;76.95
80676;SHT30;70041;46.088;18.268;2023-07-28T01:45:10;15.59;78.08
80676;SHT30;70041;46.088;18.268;2023-07-28T01:47:36;15.54;78.36
80676;SHT30;70041;46.088;18.268;2023-07-28T01:50:01;15.50;78.82
80676;SHT30;70041;46.088;18.268;2023-07-28T01:52:27;15.44;79.15
80676;SHT30;70041;46.088;18.268;2023-07-28T01:54:52;15.34;79.42
80676;SHT30;70041;46.088;18.268;2023-07-28T01:57:18;15.26;79.37
80676;SHT30;70041;46.088;18.268;2023-07-28T01:59:43;15.20;79.64
80676;SHT30;70041;46.088;18.268;2023-07-28T02:02:09;15.10;79.97
80676;SHT30;70041;46.088;18.268;2023-07-28T02:04:34;15.07;80.17
80676;SHT30;70041;46.088;18.268;2023-07-28T02:07:00;15.06;80.34
80676;SHT30;70041;46.088;18.268;2023-07-28T02:09:25;15.19;79.99
80676;SHT30;70041;46.088;18.268;2023-07-28T02:11:52;15.19;79.85
80676;SHT30;70041;46.088;18.268;2023-07-28T02:14:17;15.35;79.33
80676;SHT30;70041;46.088;18.268;2023-07-28T02:16:42;15.44;78.10
80676;SHT30;70041;46.088;18.268;2023-07-28T02:19:08;15.51;77.91
80676;SHT30;70041;46.088;18.268;2023-07-28T02:21:33;15.59;77.71
80676;SHT30;70041;46.088;18.268;2023-07-28T02:23:59;15.72;78.12
80676;SHT30;70041;46.088;18.268;2023-07-28T02:26:25;15.84;77.46
80676;SHT30;70041;46.088;18.268;2023-07-28T02:28:50;15.92;77.18
80676;SHT30;70041;46.088;18.268;2023-07-28T02:31:16;15.91;77.22
80676;SHT30;70041;46.088;18.268;2023-07-28T02:33:41;15.89;77.27
80676;SHT30;70041;46.088;18.268;2023-07-28T02:36:06;15.94;76.82
80676;SHT30;70041;46.088;18.268;2023-07-28T02:38:32;15.96;76.01
80676;SHT30;70041;46.088;18.268;2023-07-28T02:40:57;15.88;77.47
80676;SHT30;70041;46.088;18.268;2023-07-28T02:43:22;15.82;77.69
80676;SHT30;70041;46.088;18.268;2023-07-28T02:45:55;15.68;78.52
80676;SHT30;70041;46.088;18.268;2023-07-28T02:48:21;15.64;78.72
80676;SHT30;70041;46.088;18.268;2023-07-28T02:50:49;15.51;78.40
80676;SHT30;70041;46.088;18.268;2023-07-28T02:53:15;15.43;79.17
80676;SHT30;70041;46.088;18.268;2023-07-28T02:55:44;15.41;78.21
80676;SHT30;70041;46.088;18.268;2023-07-28T02:58:10;15.54;78.28
80676;SHT30;70041;46.088;18.268;2023-07-28T03:00:40;15.57;77.34
80676;SHT30;70041;46.088;18.268;2023-07-28T03:03:06;15.53;78.95
80676;SHT30;70041;46.088;18.268;2023-07-28T03:05:32;15.43;79.58
80676;SHT30;70041;46.088;18.268;2023-07-28T03:07:58;15.38;79.15
80676;SHT30;70041;46.088;18.268;2023-07-28T03:10:24;15.38;79.31
80676;SHT30;70041;46.088;18.268;2023-07-28T03:12:49;15.33;78.82
80676;SHT30;70041;46.088;18.268;2023-07-28T03:15:15;15.35;78.37
80676;SHT30;70041;46.088;18.268;2023-07-28T03:17:40;15.40;79.93
80676;SHT30;70041;46.088;18.268;2023-07-28T03:20:06;15.34;78.61
80676;SHT30;70041;46.088;18.268;2023-07-28T03:22:32;15.38;77.67
80676;SHT30;70041;46.088;18.268;2023-07-28T03:24:57;15.30;79.00
80676;SHT30;70041;46.088;18.268;2023-07-28T03:27:22;15.26;79.87
80676;SHT30;70041;46.088;18.268;2023-07-28T03:29:48;15.24;80.01
80676;SHT30;70041;46.088;18.268;2023-07-28T03:32:13;15.20;80.09
80676;SHT30;70041;46.088;18.268;2023-07-28T03:34:39;15.16;79.06
80676;SHT30;70041;46.088;18.268;2023-07-28T03:37:04;15.20;79.51
80676;SHT30;70041;46.088;18.268;2023-07-28T03:39:30;15.14;79.79
80676;SHT30;70041;46.088;18.268;2023-07-28T03:41:56;15.14;78.80
80676;SHT30;70041;46.088;18.268;2023-07-28T03:44:22;15.20;78.58
80676;SHT30;70041;46.088;18.268;2023-07-28T03:46:47;15.07;79.84
80676;SHT30;70041;46.088;18.268;2023-07-28T03:49:13;14.94;80.46
80676;SHT30;70041;46.088;18.268;2023-07-28T03:51:38;15.03;80.05
80676;SHT30;70041;46.088;18.268;2023-07-28T03:54:04;15.08;78.75
80676;SHT30;70041;46.088;18.268;2023-07-28T03:56:29;15.10;78.75
80676;SHT30;70041;46.088;18.268;2023-07-28T03:58:54;15.14;79.46
80676;SHT30;70041;46.088;18.268;2023-07-28T04:01:20;15.19;78.72
80676;SHT30;70041;46.088;18.268;2023-07-28T04:03:47;15.16;79.66
80676;SHT30;70041;46.088;18.268;2023-07-28T04:06:13;15.14;78.79
80676;SHT30;70041;46.088;18.268;2023-07-28T04:08:39;15.16;79.37
80676;SHT30;70041;46.088;18.268;2023-07-28T04:11:04;15.16;79.73
80676;SHT30;70041;46.088;18.268;2023-07-28T04:13:30;15.14;79.56
80676;SHT30;70041;46.088;18.268;2023-07-28T04:15:55;15.19;80.11
80676;SHT30;70041;46.088;18.268;2023-07-28T04:18:20;15.11;80.48
80676;SHT30;70041;46.088;18.268;2023-07-28T04:20:46;15.19;79.63
80676;SHT30;70041;46.088;18.268;2023-07-28T04:23:12;15.26;79.36
80676;SHT30;70041;46.088;18.268;2023-07-28T04:25:37;15.35;79.27
80676;SHT30;70041;46.088;18.268;2023-07-28T04:28:03;15.41;79.38
80676;SHT30;70041;46.088;18.268;2023-07-28T04:30:28;15.38;79.30
80676;SHT30;70041;46.088;18.268;2023-07-28T04:32:54;15.45;78.57
80676;SHT30;70041;46.088;18.268;2023-07-28T04:35:19;15.58;78.66
80676;SHT30;70041;46.088;18.268;2023-07-28T04:37:44;15.71;77.69
80676;SHT30;70041;46.088;18.268;2023-07-28T04:40:10;15.77;78.26
80676;SHT30;70041;46.088;18.268;2023-07-28T04:42:36;15.72;78.48
80676;SHT30;70041;46.088;18.268;2023-07-28T04:45:02;15.72;78.42
80676;SHT30;70041;46.088;18.268;2023-07-28T04:47:27;15.74;79.05
80676;SHT30;70041;46.088;18.268;2023-07-28T04:49:53;15.78;79.25
80676;SHT30;70041;46.088;18.268;2023-07-28T04:52:18;15.88;79.67
80676;SHT30;70041;46.088;18.268;2023-07-28T04:54:44;15.94;79.13
80676;SHT30;70041;46.088;18.268;2023-07-28T04:57:09;15.99;79.09
80676;SHT30;70041;46.088;18.268;2023-07-28T04:59:34;15.98;78.93
80676;SHT30;70041;46.088;18.268;2023-07-28T05:02:00;16.02;78.96
80676;SHT30;70041;46.088;18.268;2023-07-28T05:04:25;16.08;78.09
80676;SHT30;70041;46.088;18.268;2023-07-28T05:06:51;16.17;77.97
80676;SHT30;70041;46.088;18.268;2023-07-28T05:09:16;16.22;76.16
80676;SHT30;70041;46.088;18.268;2023-07-28T05:11:42;16.32;76.78
80676;SHT30;70041;46.088;18.268;2023-07-28T05:14:07;16.40;76.55
80676;SHT30;70041;46.088;18.268;2023-07-28T05:16:34;16.47;76.30
80676;SHT30;70041;46.088;18.268;2023-07-28T05:18:59;16.50;77.17
80676;SHT30;70041;46.088;18.268;2023-07-28T05:21:25;16.52;76.62
80676;SHT30;70041;46.088;18.268;2023-07-28T05:23:50;16.61;75.47
80676;SHT30;70041;46.088;18.268;2023-07-28T05:26:16;16.68;75.61
80676;SHT30;70041;46.088;18.268;2023-07-28T05:28:41;16.73;75.28
80676;SHT30;70041;46.088;18.268;2023-07-28T05:31:07;16.78;74.95
80676;SHT30;70041;46.088;18.268;2023-07-28T05:33:33;16.87;75.89
80676;SHT30;70041;46.088;18.268;2023-07-28T05:36:02;16.98;73.86
80676;SHT30;70041;46.088;18.268;2023-07-28T05:38:28;17.08;73.46
80676;SHT30;70041;46.088;18.268;2023-07-28T05:40:58;17.14;73.40
80676;SHT30;70041;46.088;18.268;2023-07-28T05:43:25;17.35;73.74
80676;SHT30;70041;46.088;18.268;2023-07-28T05:45:51;17.39;73.71
80676;SHT30;70041;46.088;18.268;2023-07-28T05:48:16;17.42;74.41
80676;SHT30;70041;46.088;18.268;2023-07-28T05:50:42;17.49;74.85
80676;SHT30;70041;46.088;18.268;2023-07-28T05:53:07;17.63;73.28
80676;SHT30;70041;46.088;18.268;2023-07-28T05:55:33;17.75;74.86
80676;SHT30;70041;46.088;18.268;2023-07-28T05:57:58;17.76;72.54
80676;SHT30;70041;46.088;18.268;2023-07-28T06:00:23;17.82;73.19
80676;SHT30;70041;46.088;18.268;2023-07-28T06:02:49;17.89;73.03
80676;SHT30;70041;46.088;18.268;2023-07-28T06:05:14;18.00;70.84
80676;SHT30;70041;46.088;18.268;2023-07-28T06:07:40;18.03;72.42
80676;SHT30;70041;46.088;18.268;2023-07-28T06:10:06;18.12;72.44
80676;SHT30;70041;46.088;18.268;2023-07-28T06:12:32;18.21;70.97
80676;SHT30;70041;46.088;18.268;2023-07-28T06:14:57;18.26;70.89
80676;SHT30;70041;46.088;18.268;2023-07-28T06:17:22;18.40;70.80
80676;SHT30;70041;46.088;18.268;2023-07-28T06:19:48;18.50;69.96
80676;SHT30;70041;46.088;18.268;2023-07-28T06:22:13;18.54;68.85
80676;SHT30;70041;46.088;18.268;2023-07-28T06:24:39;18.61;70.06
80676;SHT30;70041;46.088;18.268;2023-07-28T06:27:05;18.72;65.68
80676;SHT30;70041;46.088;18.268;2023-07-28T06:29:33;18.78;65.82
80676;SHT30;70041;46.088;18.268;2023-07-28T06:31:59;18.82;66.27
80676;SHT30;70041;46.088;18.268;2023-07-28T06:34:24;18.91;66.46
80676;SHT30;70041;46.088;18.268;2023-07-28T06:36:49;19.01;68.08
80676;SHT30;70041;46.088;18.268;2023-07-28T06:39:15;19.11;66.20
80676;SHT30;70041;46.088;18.268;2023-07-28T06:41:40;19.35;63.93
80676;SHT30;70041;46.088;18.268;2023-07-28T06:44:06;19.47;63.96
80676;SHT30;70041;46.088;18.268;2023-07-28T06:46:33;19.70;65.98
80676;SHT30;70041;46.088;18.268;2023-07-28T06:48:59;19.84;63.16
80676;SHT30;70041;46.088;18.268;2023-07-28T06:51:24;19.77;62.14
80676;SHT30;70041;46.088;18.268;2023-07-28T06:53:51;19.77;62.89
80676;SHT30;70041;46.088;18.268;2023-07-28T06:56:16;19.93;61.63
80676;SHT30;70041;46.088;18.268;2023-07-28T06:58:42;19.97;62.84
80676;SHT30;70041;46.088;18.268;2023-07-28T07:01:07;20.06;63.61
80676;SHT30;70041;46.088;18.268;2023-07-28T07:03:36;20.17;61.98
80676;SHT30;70041;46.088;18.268;2023-07-28T07:06:02;20.25;60.48
80676;SHT30;70041;46.088;18.268;2023-07-28T07:08:28;20.29;60.51
80676;SHT30;70041;46.088;18.268;2023-07-28T07:10:53;20.37;62.13
80676;SHT30;70041;46.088;18.268;2023-07-28T07:13:19;20.42;62.87
80676;SHT30;70041;46.088;18.268;2023-07-28T07:15:45;20.51;62.31
80676;SHT30;70041;46.088;18.268;2023-07-28T07:18:11;20.61;60.98
80676;SHT30;70041;46.088;18.268;2023-07-28T07:20:37;20.75;59.28
80676;SHT30;70041;46.088;18.268;2023-07-28T07:23:04;20.78;60.87
80676;SHT30;70041;46.088;18.268;2023-07-28T07:25:29;20.90;61.79
80676;SHT30;70041;46.088;18.268;2023-07-28T07:27:55;21.03;60.16
80676;SHT30;70041;46.088;18.268;2023-07-28T07:30:21;21.11;59.60
80676;SHT30;70041;46.088;18.268;2023-07-28T07:32:46;21.16;61.07
80676;SHT30;70041;46.088;18.268;2023-07-28T07:35:12;21.20;59.46
80676;SHT30;70041;46.088;18.268;2023-07-28T07:37:38;21.43;57.85
80676;SHT30;70041;46.088;18.268;2023-07-28T07:40:05;21.58;54.95
80676;SHT30;70041;46.088;18.268;2023-07-28T07:45:12;21.80;56.39
80676;SHT30;70041;46.088;18.268;2023-07-28T07:47:38;21.77;56.56
80676;SHT30;70041;46.088;18.268;2023-07-28T07:50:06;21.94;55.50
80676;SHT30;70041;46.088;18.268;2023-07-28T07:52:31;22.08;55.65
80676;SHT30;70041;46.088;18.268;2023-07-28T07:54:57;22.21;54.52
80676;SHT30;70041;46.088;18.268;2023-07-28T07:57:22;22.33;54.32
80676;SHT30;70041;46.088;18.268;2023-07-28T07:59:47;22.43;52.34
80676;SHT30;70041;46.088;18.268;2023-07-28T08:02:13;22.45;53.16
80676;SHT30;70041;46.088;18.268;2023-07-28T08:04:38;22.56;53.90
80676;SHT30;70041;46.088;18.268;2023-07-28T08:07:04;22.63;54.37
80676;SHT30;70041;46.088;18.268;2023-07-28T08:09:30;22.70;52.72
80676;SHT30;70041;46.088;18.268;2023-07-28T08:11:56;22.73;52.54
80676;SHT30;70041;46.088;18.268;2023-07-28T08:14:21;22.77;52.34
80676;SHT30;70041;46.088;18.268;2023-07-28T08:16:46;22.96;52.51
80676;SHT30;70041;46.088;18.268;2023-07-28T08:19:12;23.13;51.66
80676;SHT30;70041;46.088;18.268;2023-07-28T08:21:37;23.31;53.19
80676;SHT30;70041;46.088;18.268;2023-07-28T08:24:04;23.41;51.56
80676;SHT30;70041;46.088;18.268;2023-07-28T08:26:30;23.48;51.32
80676;SHT30;70041;46.088;18.268;2023-07-28T08:28:55;23.51;50.41
80676;SHT30;70041;46.088;18.268;2023-07-28T08:31:21;23.54;50.30
80676;SHT30;70041;46.088;18.268;2023-07-28T08:33:46;23.47;50.66
80676;SHT30;70041;46.088;18.268;2023-07-28T08:36:12;23.51;52.19
80676;SHT30;70041;46.088;18.268;2023-07-28T08:38:37;23.55;51.38
80676;SHT30;70041;46.088;18.268;2023-07-28T08:41:04;23.69;51.38
80676;SHT30;70041;46.088;18.268;2023-07-28T08:43:30;23.76;50.15
80676;SHT30;70041;46.088;18.268;2023-07-28T08:45:56;23.72;51.79
80676;SHT30;70041;46.088;18.268;2023-07-28T08:48:23;23.78;51.88
80676;SHT30;70041;46.088;18.268;2023-07-28T08:50:49;23.85;51.85
80676;SHT30;70041;46.088;18.268;2023-07-28T08:53:35;23.95;52.53
80676;SHT30;70041;46.088;18.268;2023-07-28T08:56:00;23.89;52.22
80676;SHT30;70041;46.088;18.268;2023-07-28T08:58:26;23.89;52.38
80676;SHT30;70041;46.088;18.268;2023-07-28T09:00:52;23.92;52.67
80676;SHT30;70041;46.088;18.268;2023-07-28T09:03:18;24.05;52.82
80676;SHT30;70041;46.088;18.268;2023-07-28T09:05:44;24.08;52.37
80676;SHT30;70041;46.088;18.268;2023-07-28T09:08:16;24.08;52.31
80676;SHT30;70041;46.088;18.268;2023-07-28T09:10:48;24.17;52.77
80676;SHT30;70041;46.088;18.268;2023-07-28T09:13:16;24.25;52.73
80676;SHT30;70041;46.088;18.268;2023-07-28T09:15:41;24.33;52.58
80676;SHT30;70041;46.088;18.268;2023-07-28T09:18:11;24.32;52.52
80676;SHT30;70041;46.088;18.268;2023-07-28T09:20:38;24.39;53.07
80676;SHT30;70041;46.088;18.268;2023-07-28T09:23:04;24.53;52.02
80676;SHT30;70041;46.088;18.268;2023-07-28T09:25:31;24.59;52.05
80676;SHT30;70041;46.088;18.268;2023-07-28T09:27:57;24.66;52.09
80676;SHT30;70041;46.088;18.268;2023-07-28T09:30:24;24.74;50.36
80676;SHT30;70041;46.088;18.268;2023-07-28T09:32:51;24.81;50.85
80676;SHT30;70041;46.088;18.268;2023-07-28T09:35:17;24.87;52.39
80676;SHT30;70041;46.088;18.268;2023-07-28T09:37:45;24.90;51.36
80676;SHT30;70041;46.088;18.268;2023-07-28T09:40:14;24.91;49.29
80676;SHT30;70041;46.088;18.268;2023-07-28T09:42:40;24.97;49.72
80676;SHT30;70041;46.088;18.268;2023-07-28T09:45:07;25.03;51.46
80676;SHT30;70041;46.088;18.268;2023-07-28T09:47:37;25.07;50.67
80676;SHT30;70041;46.088;18.268;2023-07-28T09:50:05;24.94;50.89
80676;SHT30;70041;46.088;18.268;2023-07-28T09:52:34;24.92;50.24
80676;SHT30;70041;46.088;18.268;2023-07-28T09:55:05;25.07;52.08
80676;SHT30;70041;46.088;18.268;2023-07-28T09:57:56;25.24;51.08
80676;SHT30;70041;46.088;18.268;2023-07-28T10:00:21;25.31;50.85
80676;SHT30;70041;46.088;18.268;2023-07-28T10:02:48;25.15;49.70
80676;SHT30;70041;46.088;18.268;2023-07-28T10:05:14;25.32;49.41
80676;SHT30;70041;46.088;18.268;2023-07-28T10:07:41;25.43;49.75
80676;SHT30;70041;46.088;18.268;2023-07-28T10:10:10;25.31;50.09
80676;SHT30;70041;46.088;18.268;2023-07-28T10:12:46;25.38;50.25
80676;SHT30;70041;46.088;18.268;2023-07-28T10:15:14;25.45;50.39
80676;SHT30;70041;46.088;18.268;2023-07-28T10:17:51;25.50;50.04
80676;SHT30;70041;46.088;18.268;2023-07-28T10:20:36;25.53;49.86
80676;SHT30;70041;46.088;18.268;2023-07-28T10:23:20;25.65;49.43
80676;SHT30;70041;46.088;18.268;2023-07-28T10:25:45;25.82;47.64
80676;SHT30;70041;46.088;18.268;2023-07-28T10:28:27;25.93;47.26
80676;SHT30;70041;46.088;18.268;2023-07-28T10:31:05;26.06;46.47
80676;SHT30;70041;46.088;18.268;2023-07-28T10:33:33;26.14;45.74
80676;SHT30;70041;46.088;18.268;2023-07-28T10:36:15;26.17;45.63
80676;SHT30;70041;46.088;18.268;2023-07-28T10:38:41;26.21;46.61
80676;SHT30;70041;46.088;18.268;2023-07-28T10:41:17;26.29;45.45
80676;SHT30;70041;46.088;18.268;2023-07-28T10:43:45;26.43;45.37
80676;SHT30;70041;46.088;18.268;2023-07-28T10:46:13;27.62;43.85
80676;SHT30;70041;46.088;18.268;2023-07-28T10:48:43;28.04;42.73
80676;SHT30;70041;46.088;18.268;2023-07-28T10:51:10;28.62;40.49
80676;SHT30;70041;46.088;18.268;2023-07-28T10:53:37;28.61;40.91
80676;SHT30;70041;46.088;18.268;2023-07-28T10:56:02;29.25;40.15
80676;SHT30;70041;46.088;18.268;2023-07-28T10:58:30;29.09;40.24
80676;SHT30;70041;46.088;18.268;2023-07-28T11:00:56;28.79;40.21
80676;SHT30;70041;46.088;18.268;2023-07-28T11:03:22;28.75;41.10
80676;SHT30;70041;46.088;18.268;2023-07-28T11:05:48;29.00;40.98
80676;SHT30;70041;46.088;18.268;2023-07-28T11:08:15;28.82;41.43
80676;SHT30;70041;46.088;18.268;2023-07-28T11:10:41;28.45;41.55
80676;SHT30;70041;46.088;18.268;2023-07-28T11:13:07;29.10;40.75
80676;SHT30;70041;46.088;18.268;2023-07-28T11:15:32;29.38;39.31
80676;SHT30;70041;46.088;18.268;2023-07-28T11:18:03;28.72;41.22
80676;SHT30;70041;46.088;18.268;2023-07-28T11:20:28;28.21;41.99
80676;SHT30;70041;46.088;18.268;2023-07-28T11:23:02;27.87;43.83
80676;SHT30;70041;46.088;18.268;2023-07-28T11:25:32;27.74;42.37
80676;SHT30;70041;46.088;18.268;2023-07-28T11:27:58;27.33;44.19
80676;SHT30;70041;46.088;18.268;2023-07-28T11:30:26;27.06;45.07
80676;SHT30;70041;46.088;18.268;2023-07-28T11:32:52;27.12;45.42
80676;SHT30;70041;46.088;18.268;2023-07-28T11:35:20;27.22;45.73
80676;SHT30;70041;46.088;18.268;2023-07-28T11:37:47;27.21;45.15
80676;SHT30;70041;46.088;18.268;2023-07-28T11:40:14;27.21;44.77
80676;SHT30;70041;46.088;18.268;2023-07-28T11:42:55;27.32;44.80
80676;SHT30;70041;46.088;18.268;2023-07-28T11:45:21;27.39;44.52
80676;SHT30;70041;46.088;18.268;2023-07-28T11:50:28;27.71;44.15
80676;SHT30;70041;46.088;18.268;2023-07-28T11:52:55;27.71;44.64
80676;SHT30;70041;46.088;18.268;2023-07-28T11:55:22;27.98;43.88
80676;SHT30;70041;46.088;18.268;2023-07-28T11:57:48;28.13;43.34
80676;SHT30;70041;46.088;18.268;2023-07-28T12:00:14;28.07;43.09
80676;SHT30;70041;46.088;18.268;2023-07-28T12:02:43;27.93;44.02
80676;SHT30;70041;46.088;18.268;2023-07-28T12:05:12;27.96;44.36
80676;SHT30;70041;46.088;18.268;2023-07-28T12:07:38;27.93;44.32
80676;SHT30;70041;46.088;18.268;2023-07-28T12:10:04;27.73;44.94
80676;SHT30;70041;46.088;18.268;2023-07-28T12:12:42;27.86;44.31
80676;SHT30;70041;46.088;18.268;2023-07-28T12:15:25;27.82;44.12
80676;SHT30;70041;46.088;18.268;2023-07-28T12:18:20;28.04;45.37
80676;SHT30;70041;46.088;18.268;2023-07-28T12:20:51;28.22;43.86
80676;SHT30;70041;46.088;18.268;2023-07-28T12:23:21;28.24;43.24
80676;SHT30;70041;46.088;18.268;2023-07-28T12:25:47;28.21;43.18
80676;SHT30;70041;46.088;18.268;2023-07-28T12:28:13;28.43;42.32
80676;SHT30;70041;46.088;18.268;2023-07-28T12:30:39;28.89;41.49
80676;SHT30;70041;46.088;18.268;2023-07-28T12:33:05;29.92;40.02
80676;SHT30;70041;46.088;18.268;2023-07-28T12:35:32;29.47;41.24
80676;SHT30;70041;46.088;18.268;2023-07-28T12:38:06;29.37;41.58
80676;SHT30;70041;46.088;18.268;2023-07-28T12:40:33;29.12;42.42
80676;SHT30;70041;46.088;18.268;2023-07-28T12:43:01;29.77;40.73
80676;SHT30;70041;46.088;18.268;2023-07-28T12:45:27;30.51;39.46
80676;SHT30;70041;46.088;18.268;2023-07-28T12:47:53;31.72;36.88
80676;SHT30;70041;46.088;18.268;2023-07-28T12:50:19;32.33;36.49
80676;SHT30;70041;46.088;18.268;2023-07-28T12:52:46;32.60;35.92
80676;SHT30;70041;46.088;18.268;2023-07-28T12:55:11;32.48;36.03
80676;SHT30;70041;46.088;18.268;2023-07-28T12:57:37;30.82;39.74
80676;SHT30;70041;46.088;18.268;2023-07-28T13:00:02;31.09;38.11
80676;SHT30;70041;46.088;18.268;2023-07-28T13:02:40;30.28;40.07
80676;SHT30;70041;46.088;18.268;2023-07-28T13:05:06;30.48;40.78
80676;SHT30;70041;46.088;18.268;2023-07-28T13:07:32;31.01;38.75
80676;SHT30;70041;46.088;18.268;2023-07-28T13:09:57;32.01;37.74
80676;SHT30;70041;46.088;18.268;2023-07-28T13:12:23;32.87;35.57
80676;SHT30;70041;46.088;18.268;2023-07-28T13:14:48;33.14;35.08
80676;SHT30;70041;46.088;18.268;2023-07-28T13:17:14;33.10;35.60
80676;SHT30;70041;46.088;18.268;2023-07-28T13:19:39;34.19;33.79
80676;SHT30;70041;46.088;18.268;2023-07-28T13:22:05;34.49;33.40
80676;SHT30;70041;46.088;18.268;2023-07-28T13:24:31;34.84;32.47
80676;SHT30;70041;46.088;18.268;2023-07-28T13:26:56;35.01;32.66
80676;SHT30;70041;46.088;18.268;2023-07-28T13:29:22;34.50;33.32
80676;SHT30;70041;46.088;18.268;2023-07-28T13:31:47;34.53;32.57
80676;SHT30;70041;46.088;18.268;2023-07-28T13:34:13;34.06;33.09
80676;SHT30;70041;46.088;18.268;2023-07-28T13:36:38;33.86;32.85
80676;SHT30;70041;46.088;18.268;2023-07-28T13:39:03;33.54;33.95
80676;SHT30;70041;46.088;18.268;2023-07-28T13:41:29;32.72;35.63
80676;SHT30;70041;46.088;18.268;2023-07-28T13:43:54;33.33;34.86
80676;SHT30;70041;46.088;18.268;2023-07-28T13:46:20;34.27;33.62
80676;SHT30;70041;46.088;18.268;2023-07-28T13:48:45;33.72;34.46
80676;SHT30;70041;46.088;18.268;2023-07-28T13:51:11;33.72;34.25
80676;SHT30;70041;46.088;18.268;2023-07-28T13:53:36;33.91;34.56
80676;SHT30;70041;46.088;18.268;2023-07-28T13:56:02;33.48;34.98
80676;SHT30;70041;46.088;18.268;2023-07-28T13:58:27;32.91;36.43
80676;SHT30;70041;46.088;18.268;2023-07-28T14:00:52;31.62;37.67
80676;SHT30;70041;46.088;18.268;2023-07-28T14:03:18;31.27;38.31
80676;SHT30;70041;46.088;18.268;2023-07-28T14:05:44;30.86;38.93
80676;SHT30;70041;46.088;18.268;2023-07-28T14:08:10;31.64;37.45
80676;SHT30;70041;46.088;18.268;2023-07-28T14:10:36;31.42;38.09
80676;SHT30;70041;46.088;18.268;2023-07-28T14:13:03;32.21;37.02
80676;SHT30;70041;46.088;18.268;2023-07-28T14:15:28;32.96;36.43
80676;SHT30;70041;46.088;18.268;2023-07-28T14:17:54;31.75;37.83
80676;SHT30;70041;46.088;18.268;2023-07-28T14:20:19;31.67;38.68
80676;SHT30;70041;46.088;18.268;2023-07-28T14:22:45;31.21;39.94
80676;SHT30;70041;46.088;18.268;2023-07-28T14:25:10;31.00;40.44
80676;SHT30;70041;46.088;18.268;2023-07-28T14:27:35;30.86;41.79
80676;SHT30;70041;46.088;18.268;2023-07-28T14:30:01;31.60;40.11
80676;SHT30;70041;46.088;18.268;2023-07-28T14:32:26;31.50;39.24
80676;SHT30;70041;46.088;18.268;2023-07-28T14:34:52;31.95;38.52
80676;SHT30;70041;46.088;18.268;2023-07-28T14:37:18;32.77;37.05
80676;SHT30;70041;46.088;18.268;2023-07-28T14:39:43;33.75;36.48
80676;SHT30;70041;46.088;18.268;2023-07-28T14:42:09;34.33;34.46
80676;SHT30;70041;46.088;18.268;2023-07-28T14:44:35;34.43;34.43
80676;SHT30;70041;46.088;18.268;2023-07-28T14:47:01;34.39;34.78
80676;SHT30;70041;46.088;18.268;2023-07-28T14:49:26;34.53;34.48
80676;SHT30;70041;46.088;18.268;2023-07-28T14:51:54;35.06;34.40
80676;SHT30;70041;46.088;18.268;2023-07-28T14:54:19;35.65;33.40
80676;SHT30;70041;46.088;18.268;2023-07-28T14:56:45;34.40;33.81
80676;SHT30;70041;46.088;18.268;2023-07-28T14:59:10;35.21;32.73
80676;SHT30;70041;46.088;18.268;2023-07-28T15:01:35;35.47;33.36
80676;SHT30;70041;46.088;18.268;2023-07-28T15:04:01;36.13;32.01
80676;SHT30;70041;46.088;18.268;2023-07-28T15:06:27;35.41;33.27
80676;SHT30;70041;46.088;18.268;2023-07-28T15:08:53;35.92;32.18
80676;SHT30;70041;46.088;18.268;2023-07-28T15:11:18;36.47;31.63
80676;SHT30;70041;46.088;18.268;2023-07-28T15:13:44;36.66;31.20
80676;SHT30;70041;46.088;18.268;2023-07-28T15:16:10;36.70;31.66
80676;SHT30;70041;46.088;18.268;2023-07-28T15:18:35;35.41;32.32
80676;SHT30;70041;46.088;18.268;2023-07-28T15:21:00;35.47;32.58